Terminal Aerodrome Forecast
Issued by NWS

Home | Current Version | Previous Version | Text Only | Print | Product List | Glossary On
Versions: 1 2 3 4 5 6 7 8 9 10 11 12 13 14 15 16
000
FTUS43 KDTX 280520
TAFDET
TAF
KDET 280520Z 2806/0106 16006KT P6SM SCT100 BKN200
     FM280900 15005KT 5SM BR BKN100
     FM281200 13010KT 2SM -SHRA BR OVC015
     FM281500 15010KT 3SM -DZ BR OVC015
     FM281800 17010KT P6SM BKN015 OVC025
     FM010000 18012KT 5SM SHRA BR OVC008=

USA.gov is the U.S. government's official web portal to all federal, state and local government web resources and services.